createdAt,value
2023-05-07T17:23:04.469Z,10.80
2023-05-07T17:26:29.007Z,10.60
2023-05-07T17:29:53.092Z,9.10
2023-05-07T17:33:21.610Z,10.20
2023-05-07T17:36:46.349Z,10.30
2023-05-07T17:40:10.778Z,9.70
2023-05-07T17:43:55.217Z,8.90
2023-05-07T17:47:53.206Z,10.70
2023-05-07T17:51:54.889Z,8.40
2023-05-07T17:56:00.232Z,8.40
2023-05-07T17:59:58.210Z,10.20
2023-05-07T18:03:57.341Z,11.90
2023-05-07T18:12:13.191Z,9.30
2023-05-07T18:16:11.296Z,7.80
2023-05-07T18:20:09.162Z,9.40
2023-05-07T18:24:07.170Z,7.90
2023-05-07T18:28:05.142Z,8.30
2023-05-07T18:32:03.300Z,8.70
2023-05-07T18:36:01.176Z,12.50
2023-05-07T18:39:59.188Z,9.80
2023-05-07T18:43:57.100Z,8.10
2023-05-07T18:47:55.167Z,10.20
2023-05-07T18:51:53.121Z,9.90
2023-05-07T18:55:53.141Z,13.20
2023-05-07T18:59:51.140Z,10.80
2023-05-07T19:03:49.191Z,9.70
2023-05-07T19:07:47.126Z,10.80
2023-05-07T19:11:45.093Z,11.90
2023-05-07T19:15:43.115Z,16.30
2023-05-07T19:19:41.124Z,15.40
2023-05-07T19:23:39.068Z,14.30
2023-05-07T19:27:37.073Z,14.70
2023-05-07T19:31:40.162Z,14.80
2023-05-07T19:35:38.142Z,10.20
2023-05-07T19:39:36.046Z,12.20
2023-05-07T19:43:34.239Z,13.30
2023-05-07T19:47:32.169Z,11.00
2023-05-07T19:51:30.073Z,11.30
2023-05-07T19:55:28.029Z,15.90
2023-05-07T19:59:27.240Z,14.90
2023-05-07T20:03:25.109Z,18.60
2023-05-07T20:07:23.053Z,12.20
2023-05-07T20:11:21.045Z,15.30
2023-05-07T20:15:19.057Z,15.20
2023-05-07T20:19:17.002Z,21.80
2023-05-07T20:23:15.050Z,15.70
2023-05-07T20:27:12.986Z,17.50
2023-05-07T20:31:11.042Z,18.30
2023-05-07T20:35:08.964Z,16.70
2023-05-07T20:39:07.081Z,17.10
2023-05-07T20:43:05.002Z,19.40
2023-05-07T20:47:03.057Z,18.80
2023-05-07T20:51:00.939Z,22.80
2023-05-07T20:54:58.998Z,24.30
2023-05-07T20:58:56.981Z,28.60
2023-05-07T21:02:55.093Z,28.10
2023-05-07T21:06:53.005Z,24.60
2023-05-07T21:10:50.971Z,24.40
2023-05-07T21:14:48.940Z,23.80
2023-05-07T21:18:46.931Z,25.10
2023-05-07T21:22:44.935Z,22.90
2023-05-07T21:26:43.023Z,27.60
2023-05-07T21:30:40.921Z,30.20
2023-05-07T21:34:38.950Z,27.80
2023-05-07T21:38:36.917Z,26.50
2023-05-07T21:42:34.942Z,24.60
2023-05-07T21:46:32.936Z,22.80
2023-05-07T21:50:31.939Z,20.90
2023-05-07T21:54:29.871Z,18.50
2023-05-07T21:58:27.923Z,18.60
2023-05-07T22:02:57.985Z,18.20
2023-05-07T22:06:55.872Z,14.10
2023-05-07T22:10:53.869Z,14.40
2023-05-07T22:14:51.868Z,13.80
2023-05-07T22:18:49.854Z,15.10
2023-05-07T22:22:49.539Z,15.40
2023-05-07T22:26:49.887Z,18.50
2023-05-07T22:30:48.024Z,16.60
2023-05-07T22:34:45.836Z,18.00
2023-05-07T22:38:43.834Z,19.50
2023-05-07T22:42:41.836Z,14.30
2023-05-07T22:46:39.820Z,14.40
2023-05-07T22:50:37.806Z,15.20
2023-05-07T22:54:35.899Z,14.80
2023-05-07T22:58:33.798Z,12.50
2023-05-07T23:02:33.987Z,13.20
2023-05-07T23:06:31.811Z,12.30
2023-05-07T23:10:29.799Z,15.00
2023-05-07T23:14:27.789Z,19.80
2023-05-07T23:18:25.774Z,22.30
2023-05-07T23:22:23.752Z,22.60
2023-05-07T23:26:21.770Z,27.80
2023-05-07T23:30:19.770Z,19.70
2023-05-07T23:34:17.766Z,20.40
2023-05-07T23:38:15.737Z,18.10
2023-05-07T23:42:13.770Z,17.00
2023-05-07T23:46:11.852Z,15.40
2023-05-07T23:50:09.904Z,16.00
2023-05-07T23:54:07.743Z,17.30
2023-05-07T23:58:05.826Z,11.60
